createdAt,value
2023-03-08T00:02:19.652Z,18.37
2023-03-08T00:04:45.913Z,15.60
2023-03-08T00:07:12.774Z,16.93
2023-03-08T00:09:39.059Z,16.97
2023-03-08T00:12:06.488Z,14.17
2023-03-08T00:14:32.688Z,14.93
2023-03-08T00:16:58.891Z,16.03
2023-03-08T00:19:25.210Z,14.17
2023-03-08T00:21:51.457Z,12.77
2023-03-08T00:24:19.069Z,15.80
2023-03-08T00:26:45.344Z,14.10
2023-03-08T00:29:11.648Z,11.50
2023-03-08T00:31:38.016Z,9.60
2023-03-08T00:34:04.291Z,9.33
2023-03-08T00:36:30.478Z,9.33
2023-03-08T00:38:56.766Z,8.53
2023-03-08T00:41:23.747Z,11.87
2023-03-08T00:43:49.992Z,10.53
2023-03-08T00:46:16.338Z,13.77
2023-03-08T00:48:42.610Z,8.97
2023-03-08T00:51:11.858Z,8.80
2023-03-08T00:53:38.034Z,8.50
2023-03-08T00:56:04.830Z,12.23
2023-03-08T00:58:31.945Z,8.63
2023-03-08T01:00:58.636Z,12.00
2023-03-08T01:03:25.371Z,9.20
2023-03-08T01:05:52.875Z,7.77
2023-03-08T01:08:19.832Z,9.23
2023-03-08T01:10:50.260Z,7.27
2023-03-08T01:13:16.620Z,10.13
2023-03-08T01:15:43.688Z,11.97
2023-03-08T01:18:10.152Z,13.87
2023-03-08T01:20:36.398Z,11.27
2023-03-08T01:23:02.854Z,11.10
2023-03-08T01:25:29.222Z,15.13
2023-03-08T01:27:55.434Z,12.97
2023-03-08T01:30:22.028Z,10.07
2023-03-08T01:32:49.074Z,12.43
2023-03-08T01:35:15.509Z,10.63
2023-03-08T01:37:41.754Z,11.03
2023-03-08T01:40:11.526Z,12.77
2023-03-08T01:42:38.139Z,11.83
2023-03-08T01:45:06.512Z,11.97
2023-03-08T01:47:35.247Z,13.30
2023-03-08T01:50:06.041Z,15.73
2023-03-08T01:52:34.864Z,11.43
2023-03-08T01:55:02.730Z,12.57
2023-03-08T01:57:32.195Z,13.70
2023-03-08T02:00:01.746Z,14.13
2023-03-08T02:02:31.203Z,12.27
2023-03-08T02:04:57.377Z,14.13
2023-03-08T02:07:24.154Z,16.43
2023-03-08T02:09:50.437Z,15.70
2023-03-08T02:12:16.738Z,12.73
2023-03-08T02:14:43.938Z,15.27
2023-03-08T02:17:10.431Z,19.33
2023-03-08T02:19:43.124Z,11.93
2023-03-08T02:22:10.276Z,17.37
2023-03-08T02:24:37.137Z,14.07
2023-03-08T02:27:07.456Z,17.53
2023-03-08T02:29:33.843Z,12.43
2023-03-08T02:32:00.143Z,16.63
2023-03-08T02:34:26.396Z,15.50
2023-03-08T02:36:52.678Z,14.60
2023-03-08T02:39:18.888Z,18.03
2023-03-08T02:41:45.744Z,15.13
2023-03-08T02:44:11.935Z,22.43
2023-03-08T02:46:38.084Z,12.53
2023-03-08T02:49:04.554Z,13.17
2023-03-08T02:51:31.024Z,15.67
2023-03-08T02:53:57.354Z,13.83
2023-03-08T02:56:24.034Z,13.20
2023-03-08T02:58:50.878Z,14.07
2023-03-08T03:01:17.154Z,18.33
2023-03-08T03:03:43.574Z,18.03
2023-03-08T03:06:14.727Z,12.17
2023-03-08T03:08:41.046Z,11.80
2023-03-08T03:11:11.576Z,15.53
2023-03-08T03:13:37.828Z,18.70
2023-03-08T03:16:07.431Z,14.53
2023-03-08T03:18:33.667Z,15.83
2023-03-08T03:21:03.188Z,18.90
2023-03-08T03:23:29.600Z,19.47
2023-03-08T03:25:55.823Z,19.47
2023-03-08T03:28:22.051Z,18.67
2023-03-08T03:30:54.781Z,17.83
2023-03-08T03:33:21.746Z,24.53
2023-03-08T03:35:47.939Z,20.47
2023-03-08T03:38:14.133Z,24.10
2023-03-08T03:40:40.362Z,24.23
2023-03-08T03:43:06.573Z,22.60
2023-03-08T03:45:32.782Z,21.93
2023-03-08T03:47:59.011Z,26.00
2023-03-08T03:50:25.880Z,22.27
2023-03-08T03:52:52.220Z,25.40
2023-03-08T03:55:18.404Z,25.20
2023-03-08T03:57:44.584Z,24.57
2023-03-08T04:00:11.938Z,28.83
2023-03-08T04:02:38.153Z,28.03
2023-03-08T04:05:05.134Z,30.13
2023-03-08T04:07:32.499Z,31.40
2023-03-08T04:09:59.152Z,35.67
2023-03-08T04:12:25.460Z,36.17
2023-03-08T04:14:52.799Z,34.77
2023-03-08T04:17:19.077Z,29.53
2023-03-08T04:19:45.279Z,29.30
2023-03-08T04:22:11.715Z,32.63
2023-03-08T04:24:38.497Z,28.47
2023-03-08T04:27:04.705Z,28.13
2023-03-08T04:29:30.993Z,30.60
2023-03-08T04:31:59.379Z,31.67
2023-03-08T04:34:27.480Z,34.57
2023-03-08T04:36:53.675Z,33.13
2023-03-08T04:39:20.036Z,39.50
2023-03-08T04:41:47.103Z,33.30
2023-03-08T04:44:13.413Z,28.23
2023-03-08T04:46:39.681Z,28.40
2023-03-08T04:49:06.059Z,26.43
2023-03-08T04:51:32.345Z,30.77
2023-03-08T04:53:58.652Z,29.43
2023-03-08T04:56:25.026Z,31.27
2023-03-08T04:58:51.891Z,32.37
2023-03-08T05:01:19.717Z,32.70
2023-03-08T05:03:48.754Z,32.80
2023-03-08T05:06:15.114Z,27.17
2023-03-08T05:08:41.475Z,29.33
2023-03-08T05:11:08.101Z,30.43
2023-03-08T05:13:36.118Z,38.00
2023-03-08T05:16:04.377Z,29.07
2023-03-08T05:18:30.636Z,25.93
2023-03-08T05:20:58.164Z,28.10
2023-03-08T05:23:28.129Z,36.90
2023-03-08T05:25:55.931Z,27.17
2023-03-08T05:28:22.625Z,30.53
2023-03-08T05:30:49.147Z,29.43
2023-03-08T05:33:16.856Z,31.40
2023-03-08T05:35:43.048Z,29.63
2023-03-08T05:38:09.306Z,32.13
2023-03-08T05:40:37.266Z,30.00
2023-03-08T05:43:03.478Z,28.57
2023-03-08T05:45:29.804Z,28.40
2023-03-08T05:47:56.036Z,24.37
2023-03-08T05:50:22.992Z,22.70
2023-03-08T05:52:49.227Z,20.33
2023-03-08T05:55:15.513Z,25.33
2023-03-08T05:57:41.782Z,26.80
2023-03-08T06:00:09.360Z,25.13
2023-03-08T06:02:35.642Z,20.70
2023-03-08T06:05:01.784Z,22.97
2023-03-08T06:07:28.599Z,26.73
2023-03-08T06:09:55.460Z,26.87
2023-03-08T06:12:21.762Z,22.80
2023-03-08T06:14:48.037Z,20.67
2023-03-08T06:17:14.527Z,27.80
2023-03-08T06:19:40.827Z,22.73
2023-03-08T06:22:07.129Z,23.90
2023-03-08T06:24:33.965Z,17.37
2023-03-08T06:27:00.389Z,18.67
2023-03-08T06:29:26.539Z,19.13
2023-03-08T06:31:52.697Z,20.87
2023-03-08T06:34:19.321Z,14.87
2023-03-08T06:36:45.543Z,17.67
2023-03-08T06:39:11.725Z,14.90
2023-03-08T06:41:39.061Z,14.70
2023-03-08T06:44:05.411Z,14.07
2023-03-08T06:46:31.803Z,15.60
2023-03-08T06:48:59.884Z,13.77
2023-03-08T06:51:26.179Z,19.63
2023-03-08T06:53:52.347Z,18.70
2023-03-08T06:56:18.563Z,19.40
2023-03-08T06:58:45.454Z,18.83
2023-03-08T07:01:12.645Z,21.53
2023-03-08T07:03:39.064Z,18.00
2023-03-08T07:06:06.802Z,18.17
2023-03-08T07:08:33.347Z,22.03
2023-03-08T07:11:00.189Z,13.33
2023-03-08T07:13:26.574Z,18.83
2023-03-08T07:15:53.522Z,16.20
2023-03-08T07:18:19.981Z,18.87
2023-03-08T07:20:51.525Z,19.87
2023-03-08T07:23:17.714Z,19.97
2023-03-08T07:25:44.036Z,23.33
2023-03-08T07:28:10.248Z,17.90
2023-03-08T07:30:36.373Z,18.87
2023-03-08T07:33:03.386Z,34.70
2023-03-08T07:35:29.661Z,32.03
2023-03-08T07:37:55.964Z,21.63
2023-03-08T07:40:22.359Z,23.30
2023-03-08T07:42:48.751Z,18.67
2023-03-08T07:45:15.277Z,14.93
2023-03-08T07:47:41.540Z,17.40
2023-03-08T07:50:10.105Z,13.63
2023-03-08T07:52:36.486Z,11.73
2023-03-08T07:55:03.039Z,15.20
2023-03-08T07:57:29.341Z,12.23
2023-03-08T07:59:55.577Z,12.70
2023-03-08T08:02:21.793Z,16.47
2023-03-08T08:04:48.153Z,12.47
2023-03-08T08:07:15.978Z,16.43
2023-03-08T08:09:42.408Z,10.47
2023-03-08T08:12:08.925Z,11.70
2023-03-08T08:14:35.162Z,12.90
2023-03-08T08:17:01.345Z,11.00
2023-03-08T08:19:27.987Z,11.17
2023-03-08T08:21:54.264Z,11.07
2023-03-08T08:24:21.091Z,11.30
2023-03-08T08:26:47.325Z,11.23
2023-03-08T08:29:13.679Z,11.17
2023-03-08T08:31:40.823Z,15.37
2023-03-08T08:34:07.250Z,13.77
2023-03-08T08:36:33.432Z,13.83
2023-03-08T08:38:59.640Z,12.90
2023-03-08T08:41:29.008Z,18.20
2023-03-08T08:43:58.178Z,13.17
2023-03-08T08:46:24.761Z,13.03
2023-03-08T08:48:50.935Z,14.60
2023-03-08T08:51:17.066Z,13.77
2023-03-08T08:53:43.682Z,15.03
2023-03-08T08:56:20.329Z,12.90
2023-03-08T08:58:52.905Z,12.00
2023-03-08T09:01:20.847Z,13.73
2023-03-08T09:03:47.404Z,11.60
2023-03-08T09:06:14.404Z,15.77
2023-03-08T09:08:40.988Z,14.13
2023-03-08T09:11:09.052Z,14.27
2023-03-08T09:13:37.447Z,11.37
2023-03-08T09:16:04.611Z,12.20
2023-03-08T09:18:30.898Z,14.40
2023-03-08T09:20:57.088Z,12.53
2023-03-08T09:23:23.244Z,16.00
2023-03-08T09:25:56.744Z,12.50
2023-03-08T09:28:23.240Z,14.23
2023-03-08T09:30:49.440Z,11.80
2023-03-08T09:33:16.695Z,16.30
2023-03-08T09:35:42.909Z,13.93
2023-03-08T09:38:09.186Z,14.90
2023-03-08T09:40:39.767Z,14.33
2023-03-08T09:43:07.558Z,17.40
2023-03-08T09:45:34.585Z,15.27
2023-03-08T09:48:06.907Z,14.00
2023-03-08T09:50:38.603Z,10.93
2023-03-08T09:53:10.894Z,13.00
2023-03-08T09:55:44.601Z,14.33
2023-03-08T09:58:16.395Z,11.30
2023-03-08T10:00:43.867Z,10.70
2023-03-08T10:03:46.214Z,13.00
2023-03-08T10:06:16.509Z,9.83
2023-03-08T10:08:48.979Z,11.30
2023-03-08T10:11:18.211Z,9.93
2023-03-08T10:13:47.515Z,12.80
2023-03-08T10:16:18.917Z,11.23
2023-03-08T10:18:48.524Z,13.17
2023-03-08T10:21:17.458Z,10.07
2023-03-08T10:23:45.433Z,12.13
2023-03-08T10:26:13.118Z,11.03
2023-03-08T10:28:39.486Z,12.77
2023-03-08T10:31:23.730Z,9.73
2023-03-08T10:33:55.847Z,9.10
2023-03-08T10:36:24.741Z,11.40
2023-03-08T10:39:05.606Z,9.80
2023-03-08T10:41:36.816Z,11.00
2023-03-08T10:44:03.223Z,10.00
2023-03-08T10:46:31.271Z,12.33
2023-03-08T10:49:08.090Z,11.57
2023-03-08T10:51:35.346Z,15.07
2023-03-08T10:54:03.421Z,11.03
2023-03-08T10:56:34.381Z,16.30
2023-03-08T10:59:00.725Z,14.43
2023-03-08T11:01:29.438Z,15.80
2023-03-08T11:04:00.820Z,13.40
2023-03-08T11:06:27.464Z,14.80
2023-03-08T11:08:55.983Z,17.47
2023-03-08T11:11:22.435Z,11.97
2023-03-08T11:13:50.025Z,12.53
2023-03-08T11:16:28.464Z,17.80
2023-03-08T11:19:02.582Z,13.27
2023-03-08T11:21:33.020Z,18.53
2023-03-08T11:24:10.013Z,12.20
2023-03-08T11:26:42.418Z,15.40
2023-03-08T11:29:26.647Z,13.67
2023-03-08T11:31:58.274Z,17.43
2023-03-08T11:34:45.681Z,15.77
2023-03-08T11:37:16.873Z,12.83
2023-03-08T11:39:46.575Z,14.93
2023-03-08T11:42:21.406Z,15.23
2023-03-08T11:45:08.496Z,10.63
2023-03-08T11:47:55.909Z,11.90
2023-03-08T11:50:23.261Z,21.03
2023-03-08T11:53:05.853Z,13.30
2023-03-08T11:55:42.299Z,14.83
2023-03-08T11:58:12.016Z,16.57
2023-03-08T12:00:40.013Z,17.57
2023-03-08T12:03:11.370Z,13.00
2023-03-08T12:05:40.812Z,12.93
2023-03-08T12:08:13.506Z,15.00
2023-03-08T12:10:44.358Z,11.30
2023-03-08T12:13:16.681Z,11.07
2023-03-08T12:15:46.518Z,14.30
2023-03-08T12:18:16.108Z,12.30
2023-03-08T12:20:43.898Z,13.97
2023-03-08T12:23:18.156Z,10.47
2023-03-08T12:25:48.382Z,11.40
2023-03-08T12:28:17.495Z,9.80
2023-03-08T12:30:54.272Z,13.17
2023-03-08T12:33:20.907Z,12.20
2023-03-08T12:35:52.704Z,12.90
2023-03-08T12:38:33.225Z,11.30
2023-03-08T12:41:00.344Z,10.00
2023-03-08T12:43:31.744Z,12.70
2023-03-08T12:46:03.942Z,11.23
2023-03-08T12:48:31.735Z,11.20
2023-03-08T12:51:01.720Z,10.80
2023-03-08T12:53:35.093Z,10.77
2023-03-08T12:56:05.787Z,12.47
2023-03-08T12:58:33.555Z,11.70
2023-03-08T13:01:03.059Z,11.73
2023-03-08T13:03:36.822Z,14.10
2023-03-08T13:06:15.419Z,10.97
2023-03-08T13:08:46.880Z,8.77
2023-03-08T13:11:14.432Z,8.50
2023-03-08T13:13:49.186Z,10.70
2023-03-08T13:16:37.354Z,11.37
2023-03-08T13:19:24.381Z,12.13
2023-03-08T13:21:55.725Z,9.70
2023-03-08T13:24:43.182Z,12.43
2023-03-08T13:27:25.684Z,10.03
2023-03-08T13:29:54.055Z,14.03
2023-03-08T13:32:21.648Z,13.33
2023-03-08T13:34:58.208Z,12.77
2023-03-08T13:37:26.040Z,8.43
2023-03-08T13:39:53.491Z,11.00
2023-03-08T13:42:23.968Z,10.40
2023-03-08T13:44:51.458Z,9.20
2023-03-08T13:47:22.651Z,9.40
2023-03-08T13:49:51.743Z,8.87
2023-03-08T13:52:19.886Z,10.20
2023-03-08T13:54:49.148Z,9.93
2023-03-08T13:57:19.838Z,14.10
2023-03-08T13:59:48.141Z,14.87
2023-03-08T14:02:20.327Z,13.53
2023-03-08T14:04:46.822Z,16.73
2023-03-08T14:07:20.003Z,14.90
2023-03-08T14:09:46.205Z,12.87
2023-03-08T14:12:15.462Z,17.47
2023-03-08T14:14:43.773Z,16.03
2023-03-08T14:17:17.995Z,12.63
2023-03-08T14:19:44.179Z,11.97
2023-03-08T14:22:13.174Z,15.80
2023-03-08T14:24:40.814Z,12.57
2023-03-08T14:27:36.354Z,13.33
2023-03-08T14:30:08.486Z,12.50
2023-03-08T14:32:37.607Z,15.60
2023-03-08T14:35:06.614Z,14.17
2023-03-08T14:37:34.620Z,14.33
2023-03-08T14:40:19.161Z,14.60
2023-03-08T14:42:47.237Z,15.80
2023-03-08T14:45:21.199Z,15.07
2023-03-08T14:47:50.263Z,16.60
2023-03-08T14:50:23.010Z,14.73
2023-03-08T14:52:51.580Z,15.33
2023-03-08T14:55:22.849Z,22.80
2023-03-08T14:57:50.306Z,20.93
2023-03-08T15:00:17.478Z,16.53
2023-03-08T15:02:44.016Z,16.13
2023-03-08T15:05:25.522Z,17.03
2023-03-08T15:07:55.014Z,16.67
2023-03-08T15:10:26.053Z,19.07
2023-03-08T15:12:52.742Z,14.77
2023-03-08T15:15:19.283Z,14.43
2023-03-08T15:17:45.540Z,16.13
2023-03-08T15:20:12.564Z,16.00
2023-03-08T15:22:42.344Z,14.73
2023-03-08T15:25:13.585Z,15.90
2023-03-08T15:27:39.792Z,15.43
2023-03-08T15:30:13.105Z,15.67
2023-03-08T15:32:39.338Z,15.43
2023-03-08T15:35:05.995Z,18.77
2023-03-08T15:37:32.275Z,19.80
2023-03-08T15:39:59.259Z,19.37
2023-03-08T15:42:25.524Z,20.37
2023-03-08T15:44:51.711Z,20.90
2023-03-08T15:47:17.978Z,24.53
2023-03-08T15:49:44.230Z,24.13
2023-03-08T15:52:10.955Z,24.00
2023-03-08T15:54:39.454Z,24.07
2023-03-08T15:57:06.320Z,22.77
2023-03-08T15:59:32.459Z,23.90
2023-03-08T16:01:58.702Z,28.33
2023-03-08T16:04:25.008Z,25.57
2023-03-08T16:06:51.229Z,26.03
2023-03-08T16:09:17.407Z,27.80
2023-03-08T16:11:43.622Z,23.93
2023-03-08T16:14:10.403Z,27.47
2023-03-08T16:16:45.295Z,26.13
2023-03-08T16:19:12.483Z,32.00
2023-03-08T16:21:38.705Z,26.07
2023-03-08T16:24:05.410Z,27.53
2023-03-08T16:26:31.587Z,22.70
2023-03-08T16:28:57.771Z,29.03
2023-03-08T16:31:24.736Z,26.37
2023-03-08T16:33:50.888Z,25.23
2023-03-08T16:36:17.084Z,25.33
2023-03-08T16:38:43.379Z,27.20
2023-03-08T16:41:13.064Z,26.30
2023-03-08T16:43:46.818Z,28.47
2023-03-08T16:46:15.011Z,23.80
2023-03-08T16:48:41.996Z,23.60
2023-03-08T16:51:13.209Z,26.03
2023-03-08T16:53:39.511Z,23.17
2023-03-08T16:56:06.323Z,27.93
2023-03-08T16:58:32.502Z,25.50
2023-03-08T17:00:58.759Z,24.47
2023-03-08T17:03:25.008Z,29.13
2023-03-08T17:05:51.966Z,29.13
2023-03-08T17:08:18.260Z,28.43
2023-03-08T17:10:44.986Z,28.17
2023-03-08T17:13:11.767Z,28.20
2023-03-08T17:15:39.251Z,36.57
2023-03-08T17:18:06.043Z,28.97
2023-03-08T17:20:32.207Z,32.00
2023-03-08T17:22:59.181Z,30.17
2023-03-08T17:25:25.583Z,30.80
2023-03-08T17:27:51.817Z,28.30
2023-03-08T17:30:19.020Z,33.87
2023-03-08T17:32:45.224Z,33.73
2023-03-08T17:35:11.610Z,38.57
2023-03-08T17:37:40.918Z,32.53
2023-03-08T17:40:10.118Z,35.13
2023-03-08T17:42:36.456Z,33.60
2023-03-08T17:45:05.522Z,40.23
2023-03-08T17:47:33.442Z,38.63
2023-03-08T17:49:59.598Z,39.03
2023-03-08T17:52:25.803Z,47.10
2023-03-08T17:54:53.649Z,46.93
2023-03-08T17:57:21.133Z,36.80
2023-03-08T17:59:47.575Z,44.43
2023-03-08T18:02:13.760Z,40.23
2023-03-08T18:04:42.371Z,41.03
2023-03-08T18:07:08.630Z,35.53
2023-03-08T18:09:34.851Z,39.03
2023-03-08T18:12:01.010Z,32.17
2023-03-08T18:14:39.290Z,41.77
2023-03-08T18:17:06.441Z,45.93
2023-03-08T18:19:32.671Z,43.83
2023-03-08T18:21:59.213Z,51.53
2023-03-08T18:24:26.756Z,34.97
2023-03-08T18:26:53.269Z,29.63
2023-03-08T18:29:20.124Z,28.40
2023-03-08T18:31:47.264Z,37.60
2023-03-08T18:34:13.457Z,34.53
2023-03-08T18:36:40.743Z,33.33
2023-03-08T18:39:11.575Z,39.83
2023-03-08T18:41:38.381Z,29.80
2023-03-08T18:44:04.875Z,37.67
2023-03-08T18:46:32.171Z,36.23
2023-03-08T18:49:00.657Z,37.63
2023-03-08T18:51:27.128Z,43.03
2023-03-08T18:53:54.263Z,30.50
2023-03-08T18:56:21.525Z,28.40
2023-03-08T18:58:47.833Z,27.37
2023-03-08T19:01:16.185Z,30.97
2023-03-08T19:03:43.090Z,28.67
2023-03-08T19:06:10.791Z,28.50
2023-03-08T19:08:37.218Z,34.13
2023-03-08T19:11:09.870Z,31.27
2023-03-08T19:13:36.033Z,31.40
2023-03-08T19:16:02.274Z,28.43
2023-03-08T19:18:28.669Z,30.10
2023-03-08T19:20:54.864Z,33.90
2023-03-08T19:23:21.715Z,39.20
2023-03-08T19:26:06.079Z,34.87
2023-03-08T19:28:32.382Z,37.07
2023-03-08T19:30:58.578Z,31.90
2023-03-08T19:33:30.867Z,30.90
2023-03-08T19:35:57.719Z,36.43
2023-03-08T19:38:24.567Z,32.40
2023-03-08T19:40:50.935Z,34.07
2023-03-08T19:43:17.099Z,34.10
2023-03-08T19:45:47.811Z,34.73
2023-03-08T19:48:14.242Z,35.57
2023-03-08T19:50:44.236Z,31.50
2023-03-08T19:53:10.431Z,34.33
2023-03-08T19:55:37.466Z,34.87
2023-03-08T19:58:05.556Z,32.30
2023-03-08T20:00:31.753Z,32.97
2023-03-08T20:02:58.683Z,28.60
2023-03-08T20:05:25.061Z,30.93
2023-03-08T20:07:51.513Z,28.80
2023-03-08T20:10:18.500Z,28.23
2023-03-08T20:12:46.316Z,29.20
2023-03-08T20:15:12.539Z,32.30
2023-03-08T20:17:38.783Z,32.27
2023-03-08T20:20:06.237Z,32.40
2023-03-08T20:22:32.574Z,35.50
2023-03-08T20:24:58.784Z,32.77
2023-03-08T20:27:25.000Z,33.87
2023-03-08T20:29:52.352Z,31.53
2023-03-08T20:32:18.665Z,30.00
2023-03-08T20:34:44.843Z,30.83
2023-03-08T20:37:10.990Z,33.40
2023-03-08T20:39:37.168Z,33.93
2023-03-08T20:42:03.498Z,34.33
2023-03-08T20:44:29.615Z,33.33
2023-03-08T20:46:56.501Z,33.83
2023-03-08T20:49:23.454Z,36.17
2023-03-08T20:51:49.621Z,35.43
2023-03-08T20:54:17.064Z,32.53
2023-03-08T20:56:43.277Z,35.80
2023-03-08T20:59:10.494Z,36.50
2023-03-08T21:01:37.011Z,35.57
2023-03-08T21:04:05.809Z,39.00
2023-03-08T21:06:32.134Z,38.30
2023-03-08T21:08:59.152Z,34.43
2023-03-08T21:11:25.363Z,43.20
2023-03-08T21:13:51.970Z,34.23
2023-03-08T21:16:20.508Z,39.67
2023-03-08T21:18:48.844Z,37.13
2023-03-08T21:21:20.836Z,39.43
2023-03-08T21:23:48.275Z,38.83
2023-03-08T21:26:14.500Z,36.27
2023-03-08T21:28:40.728Z,42.47
2023-03-08T21:31:08.463Z,41.83
2023-03-08T21:33:34.737Z,36.80
2023-03-08T21:36:01.011Z,35.93
2023-03-08T21:38:28.104Z,36.93
2023-03-08T21:40:54.262Z,37.10
2023-03-08T21:43:20.577Z,34.57
2023-03-08T21:45:47.103Z,38.67
2023-03-08T21:48:14.142Z,37.20
2023-03-08T21:50:41.188Z,44.20
2023-03-08T21:53:07.790Z,44.13
2023-03-08T21:55:38.428Z,45.93
2023-03-08T21:58:04.741Z,39.93
2023-03-08T22:00:31.391Z,42.10
2023-03-08T22:02:57.764Z,48.00
2023-03-08T22:05:24.098Z,39.17
2023-03-08T22:07:50.322Z,41.23
2023-03-08T22:10:17.616Z,44.33
2023-03-08T22:12:46.519Z,51.00
2023-03-08T22:15:14.845Z,45.20
2023-03-08T22:17:41.167Z,46.13
2023-03-08T22:20:09.917Z,47.03
2023-03-08T22:22:36.349Z,44.13
2023-03-08T22:25:02.547Z,41.23
2023-03-08T22:27:28.758Z,41.10
2023-03-08T22:29:55.768Z,45.33
2023-03-08T22:32:22.142Z,43.10
2023-03-08T22:34:48.485Z,46.63
2023-03-08T22:37:14.814Z,46.93
2023-03-08T22:39:41.323Z,47.50
2023-03-08T22:42:07.691Z,48.80
2023-03-08T22:44:34.020Z,51.17
2023-03-08T22:47:00.990Z,50.17
2023-03-08T22:49:27.280Z,46.60
2023-03-08T22:51:53.425Z,45.80
2023-03-08T22:54:21.496Z,40.27
2023-03-08T22:56:49.758Z,41.60
2023-03-08T22:59:16.200Z,46.47
2023-03-08T23:01:42.441Z,43.23
2023-03-08T23:04:10.718Z,43.17
2023-03-08T23:06:36.921Z,40.27
2023-03-08T23:09:05.488Z,44.83
2023-03-08T23:11:31.993Z,46.90
2023-03-08T23:13:58.222Z,43.53
2023-03-08T23:16:24.987Z,41.17
2023-03-08T23:18:52.811Z,39.70
2023-03-08T23:21:21.982Z,44.13
2023-03-08T23:23:48.309Z,43.43
2023-03-08T23:26:16.864Z,44.20
2023-03-08T23:28:43.325Z,45.53
2023-03-08T23:31:11.071Z,42.67
2023-03-08T23:33:37.695Z,41.70
2023-03-08T23:36:04.548Z,44.63
2023-03-08T23:38:31.426Z,46.57
2023-03-08T23:40:58.233Z,46.90
2023-03-08T23:43:24.657Z,51.13
2023-03-08T23:45:51.131Z,51.73
2023-03-08T23:48:17.340Z,47.43
2023-03-08T23:50:43.590Z,47.60
2023-03-08T23:53:09.773Z,49.83
2023-03-08T23:55:37.500Z,52.30
2023-03-08T23:58:03.678Z,48.40
